createdAt,value
2022-12-19T00:00:33.452Z,4.47
2022-12-19T00:03:01.234Z,4.60
2022-12-19T00:05:29.512Z,4.43
2022-12-19T00:07:57.691Z,4.36
2022-12-19T00:10:27.141Z,3.35
2022-12-19T00:12:54.860Z,3.11
2022-12-19T00:15:22.704Z,3.48
2022-12-19T00:17:50.427Z,3.42
2022-12-19T00:20:19.386Z,3.12
2022-12-19T00:22:47.398Z,3.63
2022-12-19T00:25:17.783Z,3.60
2022-12-19T00:27:47.100Z,3.50
2022-12-19T00:30:15.404Z,3.22
2022-12-19T00:32:43.259Z,3.64
2022-12-19T00:35:11.193Z,3.89
2022-12-19T00:37:39.051Z,3.81
2022-12-19T00:40:13.565Z,3.22
2022-12-19T00:42:41.311Z,2.97
2022-12-19T00:45:10.086Z,3.74
2022-12-19T00:47:37.930Z,3.67
2022-12-19T00:50:06.220Z,3.18
2022-12-19T00:52:33.886Z,3.15
2022-12-19T00:55:02.067Z,3.53
2022-12-19T00:57:32.592Z,4.04
2022-12-19T01:00:00.672Z,4.17
2022-12-19T01:02:28.672Z,4.17
2022-12-19T01:04:56.610Z,4.47
2022-12-19T01:07:24.511Z,4.55
2022-12-19T01:09:53.409Z,4.41
2022-12-19T01:12:40.282Z,4.42
2022-12-19T01:15:08.336Z,4.79
2022-12-19T01:17:43.519Z,4.74
2022-12-19T01:20:15.962Z,4.70
2022-12-19T01:22:45.208Z,4.25
2022-12-19T01:25:15.532Z,4.26
2022-12-19T01:27:43.413Z,4.51
2022-12-19T01:30:12.206Z,4.15
2022-12-19T01:32:40.193Z,4.52
2022-12-19T01:35:13.372Z,4.15
2022-12-19T01:38:01.511Z,4.17
2022-12-19T01:40:36.873Z,4.57
2022-12-19T01:43:05.013Z,4.18
2022-12-19T01:45:42.197Z,4.44
2022-12-19T01:48:21.948Z,4.34
2022-12-19T01:51:01.859Z,4.34
2022-12-19T01:53:49.010Z,4.41
2022-12-19T01:56:24.767Z,3.82
2022-12-19T01:59:05.114Z,3.42
2022-12-19T02:01:50.934Z,3.63
2022-12-19T02:04:25.351Z,3.96
2022-12-19T02:06:56.539Z,4.08
2022-12-19T02:09:25.736Z,3.68
2022-12-19T02:11:54.245Z,4.20
2022-12-19T02:14:22.246Z,4.30
2022-12-19T02:17:12.523Z,4.11
2022-12-19T02:19:43.410Z,4.06
2022-12-19T02:22:27.827Z,4.02
2022-12-19T02:25:27.196Z,3.82
2022-12-19T02:28:22.512Z,3.86
2022-12-19T02:31:17.411Z,4.32
2022-12-19T02:34:01.911Z,4.27
2022-12-19T02:36:42.040Z,4.13
2022-12-19T02:39:27.615Z,4.27
2022-12-19T02:42:01.256Z,4.16
2022-12-19T02:44:43.065Z,4.16
2022-12-19T02:47:12.278Z,4.08
2022-12-19T02:49:40.710Z,4.02
2022-12-19T02:52:18.853Z,4.17
2022-12-19T02:54:50.618Z,3.99
2022-12-19T02:57:24.049Z,3.97
2022-12-19T03:00:06.498Z,3.76
2022-12-19T03:02:38.810Z,4.05
2022-12-19T03:05:45.188Z,4.37
2022-12-19T03:08:25.539Z,3.89
2022-12-19T03:11:05.187Z,3.56
2022-12-19T03:13:42.102Z,3.87
2022-12-19T03:16:11.608Z,4.09
2022-12-19T03:18:40.616Z,3.84
2022-12-19T03:21:29.724Z,3.63
2022-12-19T03:23:58.914Z,3.48
2022-12-19T03:26:32.409Z,3.29
2022-12-19T03:29:32.482Z,3.24
2022-12-19T03:32:05.734Z,3.07
2022-12-19T03:34:47.519Z,2.95
2022-12-19T03:37:19.404Z,2.56
2022-12-19T03:39:52.874Z,2.29
2022-12-19T03:42:43.693Z,2.25
2022-12-19T03:45:13.969Z,2.44
2022-12-19T03:47:49.289Z,2.52
2022-12-19T03:50:17.890Z,2.45
2022-12-19T03:52:53.429Z,2.73
2022-12-19T03:55:38.832Z,2.29
2022-12-19T03:58:12.028Z,2.46
2022-12-19T04:00:42.690Z,2.81
2022-12-19T04:03:11.903Z,3.07
2022-12-19T04:05:42.713Z,2.87
2022-12-19T04:08:12.232Z,3.31
2022-12-19T04:10:51.762Z,2.59
2022-12-19T04:13:30.188Z,2.11
2022-12-19T04:16:19.931Z,1.95
2022-12-19T04:18:55.003Z,2.46
2022-12-19T04:21:32.110Z,2.98
2022-12-19T04:24:08.140Z,2.48
2022-12-19T04:26:36.807Z,2.32
2022-12-19T04:29:06.599Z,2.40
2022-12-19T04:31:36.143Z,2.56
2022-12-19T04:34:04.130Z,2.38
2022-12-19T04:36:32.268Z,2.06
2022-12-19T04:39:00.103Z,2.36
2022-12-19T04:41:28.409Z,2.36
2022-12-19T04:43:59.954Z,2.58
2022-12-19T04:46:27.879Z,2.80
2022-12-19T04:48:55.692Z,3.34
2022-12-19T04:51:23.967Z,3.25
2022-12-19T04:53:51.970Z,3.29
2022-12-19T04:56:19.851Z,3.50
2022-12-19T04:58:47.816Z,3.27
2022-12-19T05:01:16.102Z,2.49
2022-12-19T05:03:44.022Z,2.60
2022-12-19T05:06:15.202Z,2.79
2022-12-19T05:08:44.261Z,2.50
2022-12-19T05:11:19.223Z,2.79
2022-12-19T05:13:48.278Z,2.19
2022-12-19T05:16:16.335Z,2.45
2022-12-19T05:18:46.141Z,2.46
2022-12-19T05:21:14.223Z,2.72
2022-12-19T05:23:42.477Z,3.08
2022-12-19T05:26:12.046Z,3.26
2022-12-19T05:28:40.095Z,3.16
2022-12-19T05:31:10.730Z,3.41
2022-12-19T05:33:40.779Z,3.47
2022-12-19T05:36:10.130Z,3.44
2022-12-19T05:38:37.949Z,3.31
2022-12-19T05:41:18.466Z,3.34
2022-12-19T05:43:50.927Z,3.24
2022-12-19T05:46:19.468Z,3.48
2022-12-19T05:48:47.685Z,3.47
2022-12-19T05:51:15.591Z,3.18
2022-12-19T05:53:43.407Z,3.62
2022-12-19T05:56:22.603Z,3.48
2022-12-19T05:58:50.715Z,3.87
2022-12-19T06:01:24.138Z,4.09
2022-12-19T06:03:52.533Z,3.81
2022-12-19T06:06:25.652Z,3.81
2022-12-19T06:08:58.013Z,3.73
2022-12-19T06:11:27.179Z,3.84
2022-12-19T06:13:54.959Z,3.78
2022-12-19T06:16:23.779Z,3.68
2022-12-19T06:18:51.642Z,3.86
2022-12-19T06:21:21.955Z,3.73
2022-12-19T06:23:50.066Z,3.87
2022-12-19T06:26:20.663Z,3.70
2022-12-19T06:28:50.211Z,4.03
2022-12-19T06:31:19.776Z,3.83
2022-12-19T06:33:47.707Z,3.76
2022-12-19T06:36:28.579Z,3.95
2022-12-19T06:38:57.997Z,3.83
2022-12-19T06:41:44.760Z,3.59
2022-12-19T06:44:14.514Z,3.04
2022-12-19T06:46:42.846Z,2.86
2022-12-19T06:49:14.274Z,2.92
2022-12-19T06:51:42.916Z,3.36
2022-12-19T06:54:11.940Z,3.60
2022-12-19T06:56:41.748Z,4.04
2022-12-19T06:59:13.121Z,3.78
2022-12-19T07:01:52.764Z,3.78
2022-12-19T07:04:49.105Z,3.77
2022-12-19T07:07:17.282Z,3.43
2022-12-19T07:09:45.433Z,3.56
2022-12-19T07:12:13.114Z,3.41
2022-12-19T07:14:41.071Z,2.96
2022-12-19T07:17:09.054Z,3.11
2022-12-19T07:19:37.996Z,2.79
2022-12-19T07:22:06.855Z,2.68
2022-12-19T07:24:36.178Z,2.86
2022-12-19T07:27:09.325Z,2.91
2022-12-19T07:29:37.213Z,2.71
2022-12-19T07:32:05.383Z,2.97
2022-12-19T07:34:33.372Z,2.85
2022-12-19T07:37:01.325Z,2.78
2022-12-19T07:39:29.188Z,3.12
2022-12-19T07:41:57.116Z,3.34
2022-12-19T07:44:34.144Z,3.37
2022-12-19T07:47:02.129Z,3.32
2022-12-19T07:49:29.948Z,3.38
2022-12-19T07:51:58.170Z,3.50
2022-12-19T07:54:26.128Z,3.45
2022-12-19T07:56:54.108Z,3.53
2022-12-19T07:59:27.323Z,3.46
2022-12-19T08:01:57.742Z,3.27
2022-12-19T08:04:27.077Z,3.52
2022-12-19T08:06:54.924Z,3.52
2022-12-19T08:09:22.946Z,3.45
2022-12-19T08:11:51.057Z,3.55
2022-12-19T08:14:19.343Z,3.60
2022-12-19T08:17:18.747Z,3.50
2022-12-19T08:19:35.680Z,3.60
2022-12-19T08:22:03.792Z,3.68
2022-12-19T08:24:31.595Z,3.36
2022-12-19T08:26:59.863Z,3.10
2022-12-19T08:29:27.970Z,3.24
2022-12-19T08:31:55.643Z,3.49
2022-12-19T08:34:23.631Z,3.75
2022-12-19T08:36:51.532Z,3.82
2022-12-19T08:39:19.611Z,4.28
2022-12-19T08:41:47.595Z,4.30
2022-12-19T08:44:16.661Z,4.16
2022-12-19T08:46:50.066Z,4.27
2022-12-19T08:49:19.896Z,4.57
2022-12-19T08:51:48.383Z,4.39
2022-12-19T08:54:17.058Z,4.55
2022-12-19T08:56:46.326Z,4.60
2022-12-19T08:59:25.980Z,4.79
2022-12-19T09:02:00.859Z,4.73
2022-12-19T09:05:58.786Z,4.99
2022-12-19T09:07:17.191Z,4.66
2022-12-19T09:09:45.770Z,4.63
2022-12-19T09:12:14.878Z,4.77
2022-12-19T09:14:44.389Z,4.55
2022-12-19T09:17:12.435Z,4.97
2022-12-19T09:19:40.435Z,5.10
2022-12-19T09:22:10.955Z,5.04
2022-12-19T09:24:39.193Z,4.88
2022-12-19T09:27:07.608Z,4.97
2022-12-19T09:29:36.083Z,4.88
2022-12-19T09:32:04.280Z,5.08
2022-12-19T09:34:37.668Z,4.73
2022-12-19T09:37:10.357Z,4.82
2022-12-19T09:39:48.956Z,4.81
2022-12-19T09:42:26.430Z,5.10
2022-12-19T09:45:00.099Z,4.89
2022-12-19T09:47:31.535Z,5.07
2022-12-19T09:50:01.037Z,5.05
2022-12-19T09:52:43.542Z,5.25
2022-12-19T09:55:20.223Z,5.38
2022-12-19T09:57:55.968Z,5.40
2022-12-19T10:00:24.775Z,5.30
2022-12-19T10:03:24.043Z,5.13
2022-12-19T10:07:07.740Z,5.28
2022-12-19T10:09:17.077Z,5.33
2022-12-19T10:12:39.411Z,5.28
2022-12-19T10:15:01.296Z,5.27
2022-12-19T10:18:12.857Z,5.40
2022-12-19T10:20:46.223Z,5.59
2022-12-19T10:23:45.143Z,5.23
2022-12-19T10:26:19.552Z,5.31
2022-12-19T10:28:50.592Z,5.28
2022-12-19T10:31:30.840Z,5.27
2022-12-19T10:34:08.483Z,5.54
2022-12-19T10:37:19.397Z,5.27
2022-12-19T10:39:53.977Z,5.54
2022-12-19T10:42:44.598Z,5.54
2022-12-19T10:45:21.683Z,5.13
2022-12-19T10:47:56.577Z,5.14
2022-12-19T10:50:29.857Z,5.14
2022-12-19T10:53:04.401Z,5.48
2022-12-19T10:55:44.149Z,5.33
2022-12-19T10:58:38.130Z,5.39
2022-12-19T11:01:42.173Z,5.62
2022-12-19T11:04:26.789Z,5.56
2022-12-19T11:07:05.759Z,5.76
2022-12-19T11:09:42.609Z,5.57
2022-12-19T11:16:18.280Z,5.79
2022-12-19T11:17:50.213Z,5.83
2022-12-19T11:21:09.907Z,5.73
2022-12-19T11:29:25.336Z,5.88
2022-12-19T11:29:33.187Z,6.02
2022-12-19T11:30:49.023Z,5.78
2022-12-19T11:33:18.958Z,5.81
2022-12-19T11:35:55.519Z,5.83
2022-12-19T11:38:37.709Z,6.00
2022-12-19T11:41:17.340Z,5.98
2022-12-19T11:44:03.479Z,6.07
2022-12-19T11:46:43.299Z,6.02
2022-12-19T11:49:29.011Z,6.04
2022-12-19T11:52:06.920Z,6.38
2022-12-19T11:54:50.691Z,6.30
2022-12-19T11:57:20.642Z,6.28
2022-12-19T11:59:53.663Z,5.89
2022-12-19T12:02:45.590Z,6.14
2022-12-19T12:05:49.229Z,6.18
2022-12-19T12:10:30.290Z,6.11
2022-12-19T12:17:03.701Z,6.12
2022-12-19T12:28:05.869Z,6.39
2022-12-19T12:31:00.904Z,6.33
2022-12-19T12:31:05.950Z,6.39
2022-12-19T12:31:49.678Z,6.26
2022-12-19T12:31:52.736Z,6.56
2022-12-19T12:31:57.580Z,6.36
2022-12-19T12:35:56.311Z,6.32
2022-12-19T12:39:33.847Z,5.96
2022-12-19T12:42:30.173Z,6.38
2022-12-19T12:45:00.662Z,6.25
2022-12-19T12:47:30.461Z,6.16
2022-12-19T12:50:04.393Z,6.17
2022-12-19T12:52:39.861Z,5.97
2022-12-19T12:55:31.745Z,6.21
2022-12-19T12:58:00.645Z,6.41
2022-12-19T13:00:31.101Z,6.38
2022-12-19T13:03:12.924Z,6.55
2022-12-19T13:05:44.066Z,6.37
2022-12-19T13:08:26.085Z,6.39
2022-12-19T13:11:33.539Z,6.61
2022-12-19T13:14:02.200Z,6.83
2022-12-19T13:16:45.300Z,6.65
2022-12-19T13:19:27.991Z,6.59
2022-12-19T13:22:09.091Z,6.41
2022-12-19T13:24:43.036Z,6.25
2022-12-19T13:27:29.098Z,6.58
2022-12-19T13:30:14.517Z,6.54
2022-12-19T13:32:42.426Z,6.64
2022-12-19T13:36:38.624Z,6.30
2022-12-19T13:39:56.903Z,6.38
2022-12-19T13:41:47.993Z,6.15
2022-12-19T13:44:22.060Z,6.28
2022-12-19T13:46:50.601Z,6.21
2022-12-19T13:49:34.343Z,6.43
2022-12-19T13:52:05.314Z,6.50
2022-12-19T13:54:53.656Z,6.21
2022-12-19T13:57:26.327Z,5.98
2022-12-19T13:59:59.322Z,6.14
2022-12-19T14:02:44.335Z,6.47
2022-12-19T14:06:16.663Z,6.23
2022-12-19T14:08:27.896Z,6.46
2022-12-19T14:11:34.885Z,6.34
2022-12-19T14:14:23.619Z,6.38
2022-12-19T14:17:05.676Z,6.55
2022-12-19T14:19:42.198Z,6.46
2022-12-19T14:22:20.757Z,6.25
2022-12-19T14:25:07.028Z,6.29
2022-12-19T14:28:19.529Z,6.69
2022-12-19T14:31:02.860Z,6.62
2022-12-19T14:33:46.161Z,6.42
2022-12-19T14:36:29.745Z,6.44
2022-12-19T14:39:26.850Z,6.39
2022-12-19T14:42:09.209Z,6.34
2022-12-19T14:53:10.790Z,6.20
2022-12-19T14:54:01.594Z,6.08
2022-12-19T14:54:24.008Z,6.13
2022-12-19T14:54:30.699Z,6.15
2022-12-19T14:59:05.867Z,5.97
2022-12-19T15:01:36.710Z,6.14
2022-12-19T15:04:52.415Z,6.22
2022-12-19T15:07:08.731Z,6.04
2022-12-19T15:10:58.552Z,6.24
2022-12-19T15:14:49.013Z,6.29
2022-12-19T15:16:24.900Z,6.02
2022-12-19T15:18:57.307Z,6.05
2022-12-19T15:21:26.024Z,5.86
2022-12-19T15:23:54.127Z,5.92
2022-12-19T15:26:35.265Z,5.91
2022-12-19T15:29:07.060Z,5.83
2022-12-19T15:31:43.747Z,6.05
2022-12-19T15:34:34.721Z,5.74
2022-12-19T15:37:15.341Z,5.67
2022-12-19T15:39:44.673Z,6.01
2022-12-19T15:42:21.758Z,5.73
2022-12-19T15:44:51.473Z,5.72
2022-12-19T15:47:24.321Z,5.67
2022-12-19T15:49:52.367Z,5.79
2022-12-19T15:52:21.391Z,5.61
2022-12-19T15:54:50.509Z,5.64
2022-12-19T15:57:29.491Z,5.67
2022-12-19T16:00:01.857Z,5.77
2022-12-19T16:03:22.249Z,5.90
2022-12-19T16:05:26.144Z,5.63
2022-12-19T16:07:54.137Z,5.64
2022-12-19T16:10:22.391Z,5.34
2022-12-19T16:12:55.483Z,5.53
2022-12-19T16:15:31.874Z,5.44
2022-12-19T16:18:04.123Z,5.55
2022-12-19T16:20:40.384Z,5.61
2022-12-19T16:23:09.000Z,5.53
2022-12-19T16:25:50.667Z,5.60
2022-12-19T16:28:27.012Z,5.72
2022-12-19T16:30:59.359Z,5.83
2022-12-19T16:33:30.627Z,5.73
2022-12-19T16:36:07.188Z,6.05
2022-12-19T16:38:36.629Z,6.06
2022-12-19T16:41:04.954Z,5.94
2022-12-19T16:43:37.981Z,5.84
2022-12-19T16:46:07.769Z,5.79
2022-12-19T16:48:36.386Z,5.92
2022-12-19T16:51:04.786Z,5.69
2022-12-19T16:53:36.859Z,5.61
2022-12-19T16:56:05.902Z,5.86
2022-12-19T16:58:39.652Z,5.69
2022-12-19T17:01:10.972Z,5.56
2022-12-19T17:03:42.297Z,5.62
2022-12-19T17:06:17.429Z,5.65
2022-12-19T17:08:46.112Z,5.67
2022-12-19T17:11:26.379Z,5.73
2022-12-19T17:14:08.598Z,5.78
2022-12-19T17:16:38.593Z,5.64
2022-12-19T17:19:07.009Z,5.67
2022-12-19T17:21:35.192Z,5.67
2022-12-19T17:24:06.402Z,5.61
2022-12-19T17:26:34.494Z,5.49
2022-12-19T17:29:02.354Z,5.58
2022-12-19T17:31:38.204Z,5.46
2022-12-19T17:34:28.489Z,5.51
2022-12-19T17:36:58.110Z,5.39
2022-12-19T17:39:29.418Z,5.42
2022-12-19T17:42:07.099Z,5.71
2022-12-19T17:44:35.545Z,5.60
2022-12-19T17:47:04.727Z,5.49
2022-12-19T17:49:33.355Z,5.50
2022-12-19T17:52:01.047Z,5.66
2022-12-19T17:54:30.879Z,5.61
2022-12-19T17:56:58.758Z,5.97
2022-12-19T17:59:26.828Z,6.14
2022-12-19T18:01:55.309Z,5.98
2022-12-19T18:04:24.258Z,5.95
2022-12-19T18:06:52.775Z,5.93
2022-12-19T18:09:23.300Z,5.71
2022-12-19T18:11:53.036Z,5.82
2022-12-19T18:14:21.445Z,5.99
2022-12-19T18:16:51.208Z,6.18
2022-12-19T18:19:21.554Z,6.11
2022-12-19T18:21:49.677Z,5.78
2022-12-19T18:24:17.791Z,5.73
2022-12-19T18:26:45.752Z,5.53
2022-12-19T18:29:14.285Z,5.31
2022-12-19T18:31:50.100Z,5.21
2022-12-19T18:34:23.618Z,5.55
2022-12-19T18:36:52.771Z,5.80
2022-12-19T18:39:31.989Z,5.69
2022-12-19T18:42:00.599Z,5.61
2022-12-19T18:44:28.857Z,5.50
2022-12-19T18:46:56.796Z,5.67
2022-12-19T18:49:24.697Z,5.77
2022-12-19T18:51:52.991Z,5.75
2022-12-19T18:54:22.352Z,5.73
2022-12-19T18:56:53.585Z,5.74
2022-12-19T18:59:21.469Z,5.53
2022-12-19T19:01:49.713Z,5.78
2022-12-19T19:04:18.493Z,5.66
2022-12-19T19:06:51.720Z,5.65
2022-12-19T19:09:21.478Z,5.30
2022-12-19T19:12:06.365Z,5.35
2022-12-19T19:14:34.263Z,5.20
2022-12-19T19:17:23.564Z,5.29
2022-12-19T19:19:51.531Z,5.23
2022-12-19T19:22:19.755Z,5.08
2022-12-19T19:24:47.645Z,5.10
2022-12-19T19:27:16.173Z,5.18
2022-12-19T19:29:43.753Z,5.14
2022-12-19T19:32:12.048Z,4.93
2022-12-19T19:34:41.133Z,5.11
2022-12-19T19:37:13.683Z,5.10
2022-12-19T19:39:42.276Z,5.07
2022-12-19T19:42:10.663Z,5.03
2022-12-19T19:44:38.647Z,5.00
2022-12-19T19:47:06.824Z,5.11
2022-12-19T19:49:37.807Z,4.96
2022-12-19T19:52:08.566Z,4.90
2022-12-19T19:54:36.893Z,5.18
2022-12-19T19:57:05.001Z,5.01
2022-12-19T19:59:33.257Z,4.97
2022-12-19T20:02:01.671Z,5.01
2022-12-19T20:04:30.166Z,5.07
2022-12-19T20:06:58.401Z,5.27
2022-12-19T20:09:29.084Z,5.11
2022-12-19T20:11:57.482Z,5.11
2022-12-19T20:14:29.929Z,5.21
2022-12-19T20:16:58.332Z,5.18
2022-12-19T20:19:26.799Z,5.26
2022-12-19T20:21:55.476Z,5.56
2022-12-19T20:24:23.880Z,5.72
2022-12-19T20:26:51.953Z,5.53
2022-12-19T20:29:20.981Z,5.58
2022-12-19T20:31:49.412Z,5.42
2022-12-19T20:34:20.048Z,5.49
2022-12-19T20:37:02.667Z,5.81
2022-12-19T20:39:32.269Z,5.84
2022-12-19T20:42:00.779Z,5.57
2022-12-19T20:44:29.143Z,5.87
2022-12-19T20:46:57.984Z,5.82
2022-12-19T20:49:26.019Z,5.68
2022-12-19T20:51:55.065Z,5.49
2022-12-19T20:54:24.570Z,5.44
2022-12-19T20:56:52.961Z,5.31
2022-12-19T20:59:21.422Z,5.31
2022-12-19T21:01:49.893Z,5.26
2022-12-19T21:04:18.536Z,5.44
2022-12-19T21:06:46.526Z,5.59
2022-12-19T21:09:15.415Z,5.73
2022-12-19T21:11:43.850Z,5.58
2022-12-19T21:14:12.434Z,5.35
2022-12-19T21:16:40.689Z,5.35
2022-12-19T21:19:11.612Z,5.28
2022-12-19T21:21:39.844Z,5.32
2022-12-19T21:24:08.035Z,5.52
2022-12-19T21:26:36.089Z,5.38
2022-12-19T21:29:05.176Z,5.41
2022-12-19T21:31:33.606Z,5.61
2022-12-19T21:34:02.571Z,5.65
2022-12-19T21:36:31.276Z,5.59
2022-12-19T21:39:02.011Z,5.51
2022-12-19T21:41:30.619Z,5.46
2022-12-19T21:44:00.719Z,5.42
2022-12-19T21:46:30.941Z,5.49
2022-12-19T21:49:00.102Z,5.34
2022-12-19T21:51:30.793Z,5.30
2022-12-19T21:54:01.429Z,5.39
2022-12-19T21:56:39.125Z,5.33
2022-12-19T21:59:12.468Z,5.53
2022-12-19T22:01:41.900Z,5.39
2022-12-19T22:04:21.032Z,5.20
2022-12-19T22:06:50.575Z,5.54
2022-12-19T22:09:21.489Z,5.22
2022-12-19T22:11:50.149Z,5.22
2022-12-19T22:14:18.455Z,5.32
2022-12-19T22:16:46.736Z,5.25
2022-12-19T22:19:16.992Z,5.24
2022-12-19T22:21:46.714Z,5.15
2022-12-19T22:24:16.230Z,5.27
2022-12-19T22:26:45.311Z,5.23
2022-12-19T22:29:16.812Z,5.21
2022-12-19T22:31:46.029Z,5.19
2022-12-19T22:34:20.315Z,5.49
2022-12-19T22:36:49.900Z,5.29
2022-12-19T22:39:20.271Z,5.29
2022-12-19T22:41:48.463Z,5.33
2022-12-19T22:44:26.700Z,5.21
2022-12-19T22:46:55.591Z,5.19
2022-12-19T22:49:24.033Z,5.51
2022-12-19T22:51:52.394Z,5.49
2022-12-19T22:54:20.555Z,5.80
2022-12-19T22:56:51.441Z,5.89
2022-12-19T22:59:19.548Z,6.25
2022-12-19T23:01:48.186Z,6.35
2022-12-19T23:04:19.245Z,6.11
2022-12-19T23:06:47.450Z,6.40
2022-12-19T23:09:19.204Z,6.16
2022-12-19T23:11:49.474Z,6.13
2022-12-19T23:14:20.885Z,6.19
2022-12-19T23:16:49.467Z,6.10
2022-12-19T23:19:17.786Z,6.11
2022-12-19T23:21:46.255Z,6.10
2022-12-19T23:24:14.414Z,6.26
2022-12-19T23:26:42.872Z,6.15
2022-12-19T23:29:13.717Z,6.14
2022-12-19T23:31:44.021Z,5.72
2022-12-19T23:34:12.926Z,5.48
2022-12-19T23:39:35.860Z,5.47
2022-12-19T23:42:04.168Z,5.80
2022-12-19T23:44:32.204Z,5.69
2022-12-19T23:47:03.385Z,5.62
2022-12-19T23:49:33.497Z,5.79
2022-12-19T23:52:02.027Z,5.92
2022-12-19T23:54:30.002Z,6.05
2022-12-19T23:56:58.642Z,5.97
2022-12-19T23:59:26.879Z,5.97
